Amelia Island, Florida
Current Conditions -  °F | °C
As of 12:15 PM on Friday 28 Nov 2014 (Local Time) from KFHB Reporting Station
Clear Clear  
Wind Chill: 54°   Ceiling: Unl
Heat Index: 54°   Visibility: 10mi
Dew Point: 41°   Wind: 10mph
Humidity: 62%   Direction: 30°NNE
Pressure: 30.35"   Gusts: 17mph
Location:  30.6056°N, 81.5268°W
Report Text: KFHB 281715Z AUTO 03009G15KT 10SM CLR 12/05 A3035 RMK AO1
Loading
Personal Weather Stations






























Interactive Weather Map New forecast layout! Learn more

10-Day Weather Forecast

Advertisements
Track Severe Weather on mobile